sensor_id;sensor_type;location;lat;lon;timestamp;P1;durP1;ratioP1;P2;durP2;ratioP2
51738;SDS011;37815;52.692;6.226;2023-06-22T00:01:57;4.97;;;3.13;;
51738;SDS011;37815;52.692;6.226;2023-06-22T00:06:58;6.22;;;3.63;;
51738;SDS011;37815;52.692;6.226;2023-06-22T00:11:58;3.95;;;3.20;;
51738;SDS011;37815;52.692;6.226;2023-06-22T00:16:59;3.83;;;3.03;;
51738;SDS011;37815;52.692;6.226;2023-06-22T00:22:00;5.95;;;3.03;;
51738;SDS011;37815;52.692;6.226;2023-06-22T00:27:00;6.15;;;3.80;;
51738;SDS011;37815;52.692;6.226;2023-06-22T00:32:01;7.38;;;3.47;;
51738;SDS011;37815;52.692;6.226;2023-06-22T00:37:01;5.10;;;3.75;;
51738;SDS011;37815;52.692;6.226;2023-06-22T00:42:02;4.88;;;3.67;;
51738;SDS011;37815;52.692;6.226;2023-06-22T00:47:03;6.88;;;4.05;;
51738;SDS011;37815;52.692;6.226;2023-06-22T00:52:05;5.32;;;3.95;;
51738;SDS011;37815;52.692;6.226;2023-06-22T00:57:14;8.77;;;5.00;;
51738;SDS011;37815;52.692;6.226;2023-06-22T01:02:18;6.95;;;3.80;;
51738;SDS011;37815;52.692;6.226;2023-06-22T01:12:47;5.80;;;4.13;;
51738;SDS011;37815;52.692;6.226;2023-06-22T01:17:55;7.20;;;5.13;;
51738;SDS011;37815;52.692;6.226;2023-06-22T01:23:11;9.18;;;5.10;;
51738;SDS011;37815;52.692;6.226;2023-06-22T01:28:24;6.93;;;4.90;;
51738;SDS011;37815;52.692;6.226;2023-06-22T01:33:43;9.13;;;5.13;;
51738;SDS011;37815;52.692;6.226;2023-06-22T01:38:45;8.13;;;4.78;;
51738;SDS011;37815;52.692;6.226;2023-06-22T01:43:47;8.20;;;5.22;;
51738;SDS011;37815;52.692;6.226;2023-06-22T01:48:49;7.70;;;5.20;;
51738;SDS011;37815;52.692;6.226;2023-06-22T01:53:51;8.68;;;5.47;;
51738;SDS011;37815;52.692;6.226;2023-06-22T01:59:35;7.78;;;5.35;;
51738;SDS011;37815;52.692;6.226;2023-06-22T02:04:24;6.60;;;4.90;;
51738;SDS011;37815;52.692;6.226;2023-06-22T02:09:28;8.88;;;5.38;;
51738;SDS011;37815;52.692;6.226;2023-06-22T02:14:31;8.52;;;5.78;;
51738;SDS011;37815;52.692;6.226;2023-06-22T02:19:37;6.78;;;5.25;;
51738;SDS011;37815;52.692;6.226;2023-06-22T02:24:42;8.38;;;5.50;;
51738;SDS011;37815;52.692;6.226;2023-06-22T02:29:42;6.80;;;5.38;;
51738;SDS011;37815;52.692;6.226;2023-06-22T02:34:43;10.35;;;6.07;;
51738;SDS011;37815;52.692;6.226;2023-06-22T02:39:47;8.35;;;5.65;;
51738;SDS011;37815;52.692;6.226;2023-06-22T02:44:48;10.65;;;5.97;;
51738;SDS011;37815;52.692;6.226;2023-06-22T02:49:48;9.55;;;5.38;;
51738;SDS011;37815;52.692;6.226;2023-06-22T02:54:49;7.03;;;5.50;;
51738;SDS011;37815;52.692;6.226;2023-06-22T02:59:50;7.75;;;5.97;;
51738;SDS011;37815;52.692;6.226;2023-06-22T03:04:50;7.78;;;5.70;;
51738;SDS011;37815;52.692;6.226;2023-06-22T03:09:53;7.97;;;5.38;;
51738;SDS011;37815;52.692;6.226;2023-06-22T03:14:54;8.13;;;5.60;;
51738;SDS011;37815;52.692;6.226;2023-06-22T03:19:54;7.35;;;5.22;;
51738;SDS011;37815;52.692;6.226;2023-06-22T03:24:55;7.90;;;5.78;;
51738;SDS011;37815;52.692;6.226;2023-06-22T03:29:57;8.27;;;5.68;;
51738;SDS011;37815;52.692;6.226;2023-06-22T03:34:57;7.90;;;5.70;;
51738;SDS011;37815;52.692;6.226;2023-06-22T03:39:58;8.05;;;5.15;;
51738;SDS011;37815;52.692;6.226;2023-06-22T03:44:59;7.60;;;5.68;;
51738;SDS011;37815;52.692;6.226;2023-06-22T03:50:01;7.10;;;5.47;;
51738;SDS011;37815;52.692;6.226;2023-06-22T03:55:03;9.30;;;5.55;;
51738;SDS011;37815;52.692;6.226;2023-06-22T04:00:04;6.60;;;5.18;;
51738;SDS011;37815;52.692;6.226;2023-06-22T04:05:06;7.47;;;4.95;;
51738;SDS011;37815;52.692;6.226;2023-06-22T04:10:07;10.15;;;6.00;;
51738;SDS011;37815;52.692;6.226;2023-06-22T04:15:07;8.10;;;5.15;;
51738;SDS011;37815;52.692;6.226;2023-06-22T04:20:08;7.30;;;5.22;;
51738;SDS011;37815;52.692;6.226;2023-06-22T04:25:09;7.15;;;5.30;;
51738;SDS011;37815;52.692;6.226;2023-06-22T04:30:10;7.90;;;5.35;;
51738;SDS011;37815;52.692;6.226;2023-06-22T04:35:12;7.32;;;5.53;;
51738;SDS011;37815;52.692;6.226;2023-06-22T04:40:15;6.78;;;4.85;;
51738;SDS011;37815;52.692;6.226;2023-06-22T04:45:16;8.32;;;5.57;;
51738;SDS011;37815;52.692;6.226;2023-06-22T04:50:17;7.47;;;5.15;;
51738;SDS011;37815;52.692;6.226;2023-06-22T04:55:21;9.60;;;5.75;;
51738;SDS011;37815;52.692;6.226;2023-06-22T05:00:21;7.70;;;5.57;;
51738;SDS011;37815;52.692;6.226;2023-06-22T05:05:23;7.82;;;5.28;;
51738;SDS011;37815;52.692;6.226;2023-06-22T05:10:24;7.35;;;5.53;;
51738;SDS011;37815;52.692;6.226;2023-06-22T05:15:25;7.25;;;5.57;;
51738;SDS011;37815;52.692;6.226;2023-06-22T05:20:30;7.80;;;5.35;;
51738;SDS011;37815;52.692;6.226;2023-06-22T05:25:30;8.13;;;5.03;;
51738;SDS011;37815;52.692;6.226;2023-06-22T05:30:32;7.32;;;5.30;;
51738;SDS011;37815;52.692;6.226;2023-06-22T05:35:33;9.57;;;5.13;;
51738;SDS011;37815;52.692;6.226;2023-06-22T05:40:33;9.45;;;5.15;;
51738;SDS011;37815;52.692;6.226;2023-06-22T05:45:34;8.10;;;4.80;;
51738;SDS011;37815;52.692;6.226;2023-06-22T05:50:36;8.93;;;4.72;;
51738;SDS011;37815;52.692;6.226;2023-06-22T05:55:37;6.22;;;4.97;;
51738;SDS011;37815;52.692;6.226;2023-06-22T06:00:38;6.57;;;4.78;;
51738;SDS011;37815;52.692;6.226;2023-06-22T06:05:39;9.25;;;5.07;;
51738;SDS011;37815;52.692;6.226;2023-06-22T06:10:39;5.97;;;3.90;;
51738;SDS011;37815;52.692;6.226;2023-06-22T06:15:40;6.53;;;5.13;;
51738;SDS011;37815;52.692;6.226;2023-06-22T06:20:41;7.68;;;4.28;;
51738;SDS011;37815;52.692;6.226;2023-06-22T06:25:41;13.95;;;9.68;;
51738;SDS011;37815;52.692;6.226;2023-06-22T06:30:42;27.83;;;16.27;;
51738;SDS011;37815;52.692;6.226;2023-06-22T06:35:43;25.90;;;15.70;;
51738;SDS011;37815;52.692;6.226;2023-06-22T06:40:43;27.25;;;17.08;;
51738;SDS011;37815;52.692;6.226;2023-06-22T06:45:45;29.55;;;18.30;;
51738;SDS011;37815;52.692;6.226;2023-06-22T06:50:46;25.27;;;16.27;;
51738;SDS011;37815;52.692;6.226;2023-06-22T06:55:46;27.98;;;16.50;;
51738;SDS011;37815;52.692;6.226;2023-06-22T07:00:47;22.92;;;15.80;;
51738;SDS011;37815;52.692;6.226;2023-06-22T07:05:47;24.00;;;14.85;;
51738;SDS011;37815;52.692;6.226;2023-06-22T07:10:48;24.85;;;15.65;;
51738;SDS011;37815;52.692;6.226;2023-06-22T07:15:49;23.38;;;14.65;;
51738;SDS011;37815;52.692;6.226;2023-06-22T07:20:49;22.70;;;14.02;;
51738;SDS011;37815;52.692;6.226;2023-06-22T07:25:50;20.88;;;12.93;;
51738;SDS011;37815;52.692;6.226;2023-06-22T07:30:51;22.33;;;12.80;;
51738;SDS011;37815;52.692;6.226;2023-06-22T07:35:51;18.27;;;12.00;;
51738;SDS011;37815;52.692;6.226;2023-06-22T07:40:52;22.55;;;12.80;;
51738;SDS011;37815;52.692;6.226;2023-06-22T07:45:53;20.20;;;12.38;;
51738;SDS011;37815;52.692;6.226;2023-06-22T07:50:54;18.90;;;12.05;;
51738;SDS011;37815;52.692;6.226;2023-06-22T07:55:55;19.42;;;12.23;;
51738;SDS011;37815;52.692;6.226;2023-06-22T08:00:56;19.63;;;11.55;;
51738;SDS011;37815;52.692;6.226;2023-06-22T08:05:56;18.98;;;12.15;;
51738;SDS011;37815;52.692;6.226;2023-06-22T08:10:57;15.23;;;10.70;;
51738;SDS011;37815;52.692;6.226;2023-06-22T08:15:58;16.23;;;10.68;;
51738;SDS011;37815;52.692;6.226;2023-06-22T08:20:58;18.27;;;10.57;;
51738;SDS011;37815;52.692;6.226;2023-06-22T08:25:59;15.60;;;9.88;;
51738;SDS011;37815;52.692;6.226;2023-06-22T08:31:01;17.73;;;10.20;;
51738;SDS011;37815;52.692;6.226;2023-06-22T08:36:02;12.98;;;8.82;;
51738;SDS011;37815;52.692;6.226;2023-06-22T08:41:04;14.38;;;9.65;;
51738;SDS011;37815;52.692;6.226;2023-06-22T08:46:05;14.00;;;8.65;;
51738;SDS011;37815;52.692;6.226;2023-06-22T08:51:05;12.60;;;8.55;;
51738;SDS011;37815;52.692;6.226;2023-06-22T08:56:06;13.90;;;9.02;;
51738;SDS011;37815;52.692;6.226;2023-06-22T09:01:06;13.50;;;8.40;;
51738;SDS011;37815;52.692;6.226;2023-06-22T09:06:07;13.15;;;8.18;;
51738;SDS011;37815;52.692;6.226;2023-06-22T09:11:09;12.60;;;8.18;;
51738;SDS011;37815;52.692;6.226;2023-06-22T09:16:10;12.77;;;7.75;;
51738;SDS011;37815;52.692;6.226;2023-06-22T09:21:11;11.10;;;8.00;;
51738;SDS011;37815;52.692;6.226;2023-06-22T09:26:12;12.52;;;7.90;;
51738;SDS011;37815;52.692;6.226;2023-06-22T09:31:12;10.68;;;7.78;;
51738;SDS011;37815;52.692;6.226;2023-06-22T09:36:13;12.63;;;8.02;;
51738;SDS011;37815;52.692;6.226;2023-06-22T09:41:16;10.73;;;6.90;;
51738;SDS011;37815;52.692;6.226;2023-06-22T09:46:16;10.50;;;6.35;;
51738;SDS011;37815;52.692;6.226;2023-06-22T09:51:17;9.02;;;5.55;;
51738;SDS011;37815;52.692;6.226;2023-06-22T09:56:19;10.13;;;6.82;;
51738;SDS011;37815;52.692;6.226;2023-06-22T10:01:20;9.73;;;6.40;;
51738;SDS011;37815;52.692;6.226;2023-06-22T10:06:21;9.80;;;6.10;;
51738;SDS011;37815;52.692;6.226;2023-06-22T10:11:22;9.60;;;6.18;;
51738;SDS011;37815;52.692;6.226;2023-06-22T10:16:32;10.25;;;6.13;;
51738;SDS011;37815;52.692;6.226;2023-06-22T10:21:33;9.57;;;6.63;;
51738;SDS011;37815;52.692;6.226;2023-06-22T10:26:34;8.85;;;5.75;;
51738;SDS011;37815;52.692;6.226;2023-06-22T10:31:36;10.60;;;5.55;;
51738;SDS011;37815;52.692;6.226;2023-06-22T10:36:36;13.18;;;5.97;;
51738;SDS011;37815;52.692;6.226;2023-06-22T10:41:38;8.25;;;5.30;;
51738;SDS011;37815;52.692;6.226;2023-06-22T10:46:39;6.18;;;4.15;;
51738;SDS011;37815;52.692;6.226;2023-06-22T10:51:39;7.00;;;4.30;;
51738;SDS011;37815;52.692;6.226;2023-06-22T10:56:40;5.53;;;4.10;;
51738;SDS011;37815;52.692;6.226;2023-06-22T11:01:41;6.30;;;3.97;;
51738;SDS011;37815;52.692;6.226;2023-06-22T11:06:41;8.32;;;4.55;;
51738;SDS011;37815;52.692;6.226;2023-06-22T11:11:42;6.63;;;4.63;;
51738;SDS011;37815;52.692;6.226;2023-06-22T11:16:42;7.03;;;4.80;;
51738;SDS011;37815;52.692;6.226;2023-06-22T11:21:43;6.57;;;4.65;;
51738;SDS011;37815;52.692;6.226;2023-06-22T11:26:44;8.75;;;5.70;;
51738;SDS011;37815;52.692;6.226;2023-06-22T11:31:44;6.40;;;4.38;;
51738;SDS011;37815;52.692;6.226;2023-06-22T11:36:45;7.57;;;5.28;;
51738;SDS011;37815;52.692;6.226;2023-06-22T11:41:48;6.57;;;4.88;;
51738;SDS011;37815;52.692;6.226;2023-06-22T11:46:48;8.85;;;4.80;;
51738;SDS011;37815;52.692;6.226;2023-06-22T11:51:49;10.00;;;5.20;;
51738;SDS011;37815;52.692;6.226;2023-06-22T11:56:50;9.50;;;4.80;;
51738;SDS011;37815;52.692;6.226;2023-06-22T12:01:50;7.40;;;4.60;;
51738;SDS011;37815;52.692;6.226;2023-06-22T12:06:51;11.30;;;5.95;;
51738;SDS011;37815;52.692;6.226;2023-06-22T12:11:52;10.40;;;5.60;;
51738;SDS011;37815;52.692;6.226;2023-06-22T12:16:52;7.10;;;5.03;;
51738;SDS011;37815;52.692;6.226;2023-06-22T12:21:53;8.45;;;5.50;;
51738;SDS011;37815;52.692;6.226;2023-06-22T12:26:54;8.63;;;5.35;;
51738;SDS011;37815;52.692;6.226;2023-06-22T12:31:54;7.68;;;5.25;;
51738;SDS011;37815;52.692;6.226;2023-06-22T12:36:55;8.90;;;5.30;;
51738;SDS011;37815;52.692;6.226;2023-06-22T12:41:56;7.80;;;5.43;;
51738;SDS011;37815;52.692;6.226;2023-06-22T12:46:56;6.60;;;5.30;;
51738;SDS011;37815;52.692;6.226;2023-06-22T12:51:57;6.88;;;4.32;;
51738;SDS011;37815;52.692;6.226;2023-06-22T12:56:57;7.65;;;4.85;;
51738;SDS011;37815;52.692;6.226;2023-06-22T13:01:58;7.95;;;5.60;;
51738;SDS011;37815;52.692;6.226;2023-06-22T13:06:59;5.65;;;4.50;;
51738;SDS011;37815;52.692;6.226;2023-06-22T13:11:59;7.82;;;4.70;;
51738;SDS011;37815;52.692;6.226;2023-06-22T13:17:00;6.13;;;5.13;;
51738;SDS011;37815;52.692;6.226;2023-06-22T13:22:00;8.20;;;5.20;;
51738;SDS011;37815;52.692;6.226;2023-06-22T13:27:02;7.40;;;4.72;;
51738;SDS011;37815;52.692;6.226;2023-06-22T13:32:03;7.90;;;5.30;;
51738;SDS011;37815;52.692;6.226;2023-06-22T13:37:04;8.93;;;6.03;;
51738;SDS011;37815;52.692;6.226;2023-06-22T13:42:05;8.75;;;6.43;;
51738;SDS011;37815;52.692;6.226;2023-06-22T13:47:06;9.70;;;5.78;;
51738;SDS011;37815;52.692;6.226;2023-06-22T13:52:07;10.10;;;5.78;;
51738;SDS011;37815;52.692;6.226;2023-06-22T13:57:10;7.95;;;5.93;;
51738;SDS011;37815;52.692;6.226;2023-06-22T14:02:10;8.48;;;5.97;;
51738;SDS011;37815;52.692;6.226;2023-06-22T14:07:11;9.13;;;6.35;;
51738;SDS011;37815;52.692;6.226;2023-06-22T14:12:12;8.90;;;5.88;;
51738;SDS011;37815;52.692;6.226;2023-06-22T14:17:15;6.75;;;4.90;;
51738;SDS011;37815;52.692;6.226;2023-06-22T14:22:16;8.73;;;5.07;;
51738;SDS011;37815;52.692;6.226;2023-06-22T14:27:16;7.47;;;5.00;;
51738;SDS011;37815;52.692;6.226;2023-06-22T14:32:17;13.55;;;4.90;;
51738;SDS011;37815;52.692;6.226;2023-06-22T14:37:17;8.35;;;6.00;;
51738;SDS011;37815;52.692;6.226;2023-06-22T14:42:18;8.40;;;5.32;;
51738;SDS011;37815;52.692;6.226;2023-06-22T14:47:19;7.63;;;4.43;;
51738;SDS011;37815;52.692;6.226;2023-06-22T14:52:21;8.30;;;4.60;;
51738;SDS011;37815;52.692;6.226;2023-06-22T14:57:21;10.18;;;4.78;;
51738;SDS011;37815;52.692;6.226;2023-06-22T15:02:28;10.00;;;6.38;;
51738;SDS011;37815;52.692;6.226;2023-06-22T15:07:29;11.10;;;5.90;;
51738;SDS011;37815;52.692;6.226;2023-06-22T15:12:29;7.22;;;5.60;;
51738;SDS011;37815;52.692;6.226;2023-06-22T15:17:30;7.75;;;5.40;;
51738;SDS011;37815;52.692;6.226;2023-06-22T15:22:31;7.60;;;4.75;;
51738;SDS011;37815;52.692;6.226;2023-06-22T15:27:31;9.13;;;6.00;;
51738;SDS011;37815;52.692;6.226;2023-06-22T15:32:32;10.15;;;6.78;;
51738;SDS011;37815;52.692;6.226;2023-06-22T15:37:33;11.30;;;7.32;;
51738;SDS011;37815;52.692;6.226;2023-06-22T15:42:33;10.65;;;6.53;;
51738;SDS011;37815;52.692;6.226;2023-06-22T15:47:34;11.55;;;7.15;;
51738;SDS011;37815;52.692;6.226;2023-06-22T15:52:35;13.60;;;6.18;;
51738;SDS011;37815;52.692;6.226;2023-06-22T15:57:36;13.15;;;7.10;;
51738;SDS011;37815;52.692;6.226;2023-06-22T16:02:36;9.40;;;6.30;;
51738;SDS011;37815;52.692;6.226;2023-06-22T16:07:37;7.35;;;5.55;;
51738;SDS011;37815;52.692;6.226;2023-06-22T16:12:40;9.13;;;5.80;;
51738;SDS011;37815;52.692;6.226;2023-06-22T16:17:42;9.75;;;5.43;;
51738;SDS011;37815;52.692;6.226;2023-06-22T16:22:43;10.20;;;5.47;;
51738;SDS011;37815;52.692;6.226;2023-06-22T16:27:45;7.85;;;4.90;;
51738;SDS011;37815;52.692;6.226;2023-06-22T16:32:53;7.57;;;4.60;;
51738;SDS011;37815;52.692;6.226;2023-06-22T16:37:55;6.15;;;4.30;;
51738;SDS011;37815;52.692;6.226;2023-06-22T16:42:56;6.28;;;4.63;;
51738;SDS011;37815;52.692;6.226;2023-06-22T16:47:56;6.38;;;4.50;;
51738;SDS011;37815;52.692;6.226;2023-06-22T16:52:57;6.43;;;4.38;;
51738;SDS011;37815;52.692;6.226;2023-06-22T16:57:57;7.75;;;4.60;;
51738;SDS011;37815;52.692;6.226;2023-06-22T17:03:00;7.75;;;4.63;;
51738;SDS011;37815;52.692;6.226;2023-06-22T17:08:04;4.70;;;3.83;;
51738;SDS011;37815;52.692;6.226;2023-06-22T17:13:07;5.32;;;3.50;;
51738;SDS011;37815;52.692;6.226;2023-06-22T17:18:08;5.30;;;3.53;;
51738;SDS011;37815;52.692;6.226;2023-06-22T17:23:10;6.50;;;3.08;;
51738;SDS011;37815;52.692;6.226;2023-06-22T17:28:10;3.85;;;2.65;;
51738;SDS011;37815;52.692;6.226;2023-06-22T17:33:14;4.13;;;2.72;;
51738;SDS011;37815;52.692;6.226;2023-06-22T17:38:19;6.90;;;3.08;;
51738;SDS011;37815;52.692;6.226;2023-06-22T17:43:21;5.68;;;2.70;;
51738;SDS011;37815;52.692;6.226;2023-06-22T17:48:21;6.35;;;2.70;;
51738;SDS011;37815;52.692;6.226;2023-06-22T17:53:25;3.83;;;2.50;;
51738;SDS011;37815;52.692;6.226;2023-06-22T17:58:26;4.70;;;2.80;;
51738;SDS011;37815;52.692;6.226;2023-06-22T18:03:27;6.03;;;3.40;;
51738;SDS011;37815;52.692;6.226;2023-06-22T18:08:28;7.05;;;3.22;;
51738;SDS011;37815;52.692;6.226;2023-06-22T18:13:29;7.00;;;3.13;;
51738;SDS011;37815;52.692;6.226;2023-06-22T18:18:30;9.35;;;3.67;;
51738;SDS011;37815;52.692;6.226;2023-06-22T18:23:33;8.90;;;3.35;;
51738;SDS011;37815;52.692;6.226;2023-06-22T18:28:36;6.20;;;4.22;;
51738;SDS011;37815;52.692;6.226;2023-06-22T18:33:37;4.68;;;2.85;;
51738;SDS011;37815;52.692;6.226;2023-06-22T18:38:42;7.53;;;3.30;;
51738;SDS011;37815;52.692;6.226;2023-06-22T18:43:51;5.15;;;3.08;;
51738;SDS011;37815;52.692;6.226;2023-06-22T18:48:53;4.07;;;2.95;;
51738;SDS011;37815;52.692;6.226;2023-06-22T18:54:02;5.03;;;2.97;;
51738;SDS011;37815;52.692;6.226;2023-06-22T18:59:04;5.28;;;3.05;;
51738;SDS011;37815;52.692;6.226;2023-06-22T19:04:15;4.03;;;2.88;;
51738;SDS011;37815;52.692;6.226;2023-06-22T19:09:16;3.47;;;2.70;;
51738;SDS011;37815;52.692;6.226;2023-06-22T19:14:19;4.70;;;2.50;;
51738;SDS011;37815;52.692;6.226;2023-06-22T19:19:21;4.43;;;3.10;;
51738;SDS011;37815;52.692;6.226;2023-06-22T19:24:29;4.85;;;2.60;;
51738;SDS011;37815;52.692;6.226;2023-06-22T19:34:34;6.32;;;2.58;;
51738;SDS011;37815;52.692;6.226;2023-06-22T19:39:35;2.78;;;2.00;;
51738;SDS011;37815;52.692;6.226;2023-06-22T19:44:36;3.30;;;2.15;;
51738;SDS011;37815;52.692;6.226;2023-06-22T19:49:36;5.63;;;2.67;;
51738;SDS011;37815;52.692;6.226;2023-06-22T19:54:40;3.90;;;2.20;;
51738;SDS011;37815;52.692;6.226;2023-06-22T19:59:41;3.58;;;2.65;;
51738;SDS011;37815;52.692;6.226;2023-06-22T20:04:44;4.53;;;2.40;;
51738;SDS011;37815;52.692;6.226;2023-06-22T20:09:45;3.75;;;2.63;;
51738;SDS011;37815;52.692;6.226;2023-06-22T20:14:46;4.85;;;2.67;;
51738;SDS011;37815;52.692;6.226;2023-06-22T20:19:52;5.55;;;2.45;;
51738;SDS011;37815;52.692;6.226;2023-06-22T20:24:53;3.45;;;2.50;;
51738;SDS011;37815;52.692;6.226;2023-06-22T20:29:54;4.88;;;2.72;;
51738;SDS011;37815;52.692;6.226;2023-06-22T20:34:55;3.85;;;2.80;;
51738;SDS011;37815;52.692;6.226;2023-06-22T20:39:55;4.68;;;2.38;;
51738;SDS011;37815;52.692;6.226;2023-06-22T20:44:56;3.92;;;2.42;;
51738;SDS011;37815;52.692;6.226;2023-06-22T20:49:58;3.80;;;2.45;;
51738;SDS011;37815;52.692;6.226;2023-06-22T20:55:01;4.20;;;2.38;;
51738;SDS011;37815;52.692;6.226;2023-06-22T21:00:02;3.92;;;2.70;;
51738;SDS011;37815;52.692;6.226;2023-06-22T21:05:06;3.15;;;2.50;;
51738;SDS011;37815;52.692;6.226;2023-06-22T21:10:07;4.22;;;2.55;;
51738;SDS011;37815;52.692;6.226;2023-06-22T21:15:08;3.90;;;2.50;;
51738;SDS011;37815;52.692;6.226;2023-06-22T21:20:15;3.80;;;2.30;;
51738;SDS011;37815;52.692;6.226;2023-06-22T21:25:17;2.85;;;2.40;;
51738;SDS011;37815;52.692;6.226;2023-06-22T21:30:17;3.65;;;2.53;;
51738;SDS011;37815;52.692;6.226;2023-06-22T21:35:18;2.65;;;2.10;;
51738;SDS011;37815;52.692;6.226;2023-06-22T21:40:19;3.15;;;2.50;;
51738;SDS011;37815;52.692;6.226;2023-06-22T21:45:19;2.90;;;2.28;;
51738;SDS011;37815;52.692;6.226;2023-06-22T21:50:20;6.00;;;2.50;;
51738;SDS011;37815;52.692;6.226;2023-06-22T21:55:20;4.43;;;2.08;;
51738;SDS011;37815;52.692;6.226;2023-06-22T22:00:21;3.67;;;2.10;;
51738;SDS011;37815;52.692;6.226;2023-06-22T22:05:22;2.85;;;2.20;;
51738;SDS011;37815;52.692;6.226;2023-06-22T22:10:22;3.78;;;2.20;;
51738;SDS011;37815;52.692;6.226;2023-06-22T22:15:23;3.10;;;1.90;;
51738;SDS011;37815;52.692;6.226;2023-06-22T22:20:24;4.72;;;2.30;;
51738;SDS011;37815;52.692;6.226;2023-06-22T22:25:24;2.45;;;1.88;;
51738;SDS011;37815;52.692;6.226;2023-06-22T22:30:26;3.33;;;2.30;;
51738;SDS011;37815;52.692;6.226;2023-06-22T22:35:27;2.55;;;1.85;;
51738;SDS011;37815;52.692;6.226;2023-06-22T22:40:27;2.60;;;1.77;;
51738;SDS011;37815;52.692;6.226;2023-06-22T22:45:28;3.65;;;2.20;;
51738;SDS011;37815;52.692;6.226;2023-06-22T22:50:29;3.78;;;2.10;;
51738;SDS011;37815;52.692;6.226;2023-06-22T22:55:29;2.92;;;1.88;;
51738;SDS011;37815;52.692;6.226;2023-06-22T23:00:31;4.32;;;2.10;;
51738;SDS011;37815;52.692;6.226;2023-06-22T23:05:32;3.83;;;2.40;;
51738;SDS011;37815;52.692;6.226;2023-06-22T23:10:33;2.22;;;1.75;;
51738;SDS011;37815;52.692;6.226;2023-06-22T23:15:34;3.10;;;1.80;;
51738;SDS011;37815;52.692;6.226;2023-06-22T23:20:35;3.90;;;1.67;;
51738;SDS011;37815;52.692;6.226;2023-06-22T23:25:35;3.60;;;2.20;;
51738;SDS011;37815;52.692;6.226;2023-06-22T23:30:36;2.50;;;1.90;;
51738;SDS011;37815;52.692;6.226;2023-06-22T23:35:37;2.47;;;2.08;;
51738;SDS011;37815;52.692;6.226;2023-06-22T23:40:40;2.00;;;1.80;;
51738;SDS011;37815;52.692;6.226;2023-06-22T23:45:41;3.28;;;2.05;;
51738;SDS011;37815;52.692;6.226;2023-06-22T23:50:41;3.08;;;1.90;;
51738;SDS011;37815;52.692;6.226;2023-06-22T23:55:42;2.63;;;1.98;;
